sensor_id;sensor_type;location;lat;lon;timestamp;P1;durP1;ratioP1;P2;durP2;ratioP2
52104;SDS011;38103;42.776;23.112;2023-05-02T00:01:31;15.95;;;8.38;;
52104;SDS011;38103;42.776;23.112;2023-05-02T00:03:56;16.08;;;8.40;;
52104;SDS011;38103;42.776;23.112;2023-05-02T00:06:22;15.27;;;8.45;;
52104;SDS011;38103;42.776;23.112;2023-05-02T00:08:48;14.93;;;8.48;;
52104;SDS011;38103;42.776;23.112;2023-05-02T00:11:14;14.52;;;8.05;;
52104;SDS011;38103;42.776;23.112;2023-05-02T00:13:39;15.82;;;8.38;;
52104;SDS011;38103;42.776;23.112;2023-05-02T00:16:05;15.80;;;7.68;;
52104;SDS011;38103;42.776;23.112;2023-05-02T00:18:30;14.82;;;8.63;;
52104;SDS011;38103;42.776;23.112;2023-05-02T00:20:56;15.85;;;8.68;;
52104;SDS011;38103;42.776;23.112;2023-05-02T00:23:21;16.85;;;9.80;;
52104;SDS011;38103;42.776;23.112;2023-05-02T00:25:47;16.60;;;8.73;;
52104;SDS011;38103;42.776;23.112;2023-05-02T00:28:13;16.73;;;8.80;;
52104;SDS011;38103;42.776;23.112;2023-05-02T00:30:42;16.17;;;8.45;;
52104;SDS011;38103;42.776;23.112;2023-05-02T00:33:09;15.13;;;8.35;;
52104;SDS011;38103;42.776;23.112;2023-05-02T00:35:36;17.42;;;8.32;;
52104;SDS011;38103;42.776;23.112;2023-05-02T00:38:01;17.23;;;9.35;;
52104;SDS011;38103;42.776;23.112;2023-05-02T00:40:27;15.90;;;9.30;;
52104;SDS011;38103;42.776;23.112;2023-05-02T00:42:52;17.25;;;9.70;;
52104;SDS011;38103;42.776;23.112;2023-05-02T00:45:17;16.23;;;9.77;;
52104;SDS011;38103;42.776;23.112;2023-05-02T00:47:43;16.10;;;9.75;;
52104;SDS011;38103;42.776;23.112;2023-05-02T00:50:08;15.70;;;9.88;;
52104;SDS011;38103;42.776;23.112;2023-05-02T00:52:34;17.00;;;9.82;;
52104;SDS011;38103;42.776;23.112;2023-05-02T00:55:01;16.02;;;9.43;;
52104;SDS011;38103;42.776;23.112;2023-05-02T00:57:27;19.80;;;9.68;;
52104;SDS011;38103;42.776;23.112;2023-05-02T00:59:52;15.52;;;9.55;;
52104;SDS011;38103;42.776;23.112;2023-05-02T01:05:20;15.55;;;8.95;;
52104;SDS011;38103;42.776;23.112;2023-05-02T01:10:47;14.75;;;9.02;;
52104;SDS011;38103;42.776;23.112;2023-05-02T01:13:27;14.07;;;7.90;;
52104;SDS011;38103;42.776;23.112;2023-05-02T01:15:56;14.45;;;8.05;;
52104;SDS011;38103;42.776;23.112;2023-05-02T01:18:25;15.40;;;8.80;;
52104;SDS011;38103;42.776;23.112;2023-05-02T01:20:56;15.32;;;8.85;;
52104;SDS011;38103;42.776;23.112;2023-05-02T01:23:37;15.10;;;8.38;;
52104;SDS011;38103;42.776;23.112;2023-05-02T01:29:10;15.32;;;9.43;;
52104;SDS011;38103;42.776;23.112;2023-05-02T01:31:43;16.83;;;9.32;;
52104;SDS011;38103;42.776;23.112;2023-05-02T01:34:12;17.03;;;9.67;;
52104;SDS011;38103;42.776;23.112;2023-05-02T01:36:41;15.63;;;9.23;;
52104;SDS011;38103;42.776;23.112;2023-05-02T01:39:09;18.63;;;10.23;;
52104;SDS011;38103;42.776;23.112;2023-05-02T01:41:37;18.45;;;10.20;;
52104;SDS011;38103;42.776;23.112;2023-05-02T01:44:04;16.25;;;9.38;;
52104;SDS011;38103;42.776;23.112;2023-05-02T01:46:33;16.52;;;9.73;;
52104;SDS011;38103;42.776;23.112;2023-05-02T01:49:02;18.10;;;9.88;;
52104;SDS011;38103;42.776;23.112;2023-05-02T01:51:31;17.40;;;10.60;;
52104;SDS011;38103;42.776;23.112;2023-05-02T01:54:00;16.20;;;10.23;;
52104;SDS011;38103;42.776;23.112;2023-05-02T01:56:30;15.25;;;8.93;;
52104;SDS011;38103;42.776;23.112;2023-05-02T01:58:59;16.77;;;10.00;;
52104;SDS011;38103;42.776;23.112;2023-05-02T02:01:26;16.95;;;10.07;;
52104;SDS011;38103;42.776;23.112;2023-05-02T02:03:54;15.63;;;10.00;;
52104;SDS011;38103;42.776;23.112;2023-05-02T02:06:21;18.75;;;12.57;;
52104;SDS011;38103;42.776;23.112;2023-05-02T02:08:47;19.42;;;12.77;;
52104;SDS011;38103;42.776;23.112;2023-05-02T02:11:14;19.48;;;12.63;;
52104;SDS011;38103;42.776;23.112;2023-05-02T02:13:43;21.10;;;12.68;;
52104;SDS011;38103;42.776;23.112;2023-05-02T02:16:13;23.63;;;12.68;;
52104;SDS011;38103;42.776;23.112;2023-05-02T02:18:46;19.65;;;12.57;;
52104;SDS011;38103;42.776;23.112;2023-05-02T02:21:12;20.90;;;11.80;;
52104;SDS011;38103;42.776;23.112;2023-05-02T02:23:42;18.60;;;10.60;;
52104;SDS011;38103;42.776;23.112;2023-05-02T02:26:12;18.00;;;11.20;;
52104;SDS011;38103;42.776;23.112;2023-05-02T02:28:39;16.65;;;10.82;;
52104;SDS011;38103;42.776;23.112;2023-05-02T02:31:05;20.55;;;10.98;;
52104;SDS011;38103;42.776;23.112;2023-05-02T02:33:30;17.02;;;11.00;;
52104;SDS011;38103;42.776;23.112;2023-05-02T02:36:03;16.88;;;10.23;;
52104;SDS011;38103;42.776;23.112;2023-05-02T02:44:08;17.92;;;11.20;;
52104;SDS011;38103;42.776;23.112;2023-05-02T02:46:49;18.10;;;10.95;;
52104;SDS011;38103;42.776;23.112;2023-05-02T02:51:49;18.50;;;12.00;;
52104;SDS011;38103;42.776;23.112;2023-05-02T02:54:30;18.45;;;11.45;;
52104;SDS011;38103;42.776;23.112;2023-05-02T02:57:36;19.48;;;12.25;;
52104;SDS011;38103;42.776;23.112;2023-05-02T03:00:15;17.75;;;11.77;;
52104;SDS011;38103;42.776;23.112;2023-05-02T03:02:45;19.60;;;13.57;;
52104;SDS011;38103;42.776;23.112;2023-05-02T03:05:12;20.48;;;13.43;;
52104;SDS011;38103;42.776;23.112;2023-05-02T03:07:38;22.48;;;14.23;;
52104;SDS011;38103;42.776;23.112;2023-05-02T03:10:04;20.25;;;13.05;;
52104;SDS011;38103;42.776;23.112;2023-05-02T03:12:30;20.63;;;13.23;;
52104;SDS011;38103;42.776;23.112;2023-05-02T03:15:13;21.42;;;14.75;;
52104;SDS011;38103;42.776;23.112;2023-05-02T03:17:40;22.05;;;15.32;;
52104;SDS011;38103;42.776;23.112;2023-05-02T03:20:05;22.63;;;14.13;;
52104;SDS011;38103;42.776;23.112;2023-05-02T03:22:31;19.58;;;13.82;;
52104;SDS011;38103;42.776;23.112;2023-05-02T03:24:56;26.95;;;14.32;;
52104;SDS011;38103;42.776;23.112;2023-05-02T03:27:22;22.02;;;14.05;;
52104;SDS011;38103;42.776;23.112;2023-05-02T03:29:47;19.95;;;13.88;;
52104;SDS011;38103;42.776;23.112;2023-05-02T03:32:13;23.17;;;13.82;;
52104;SDS011;38103;42.776;23.112;2023-05-02T03:34:38;21.42;;;14.60;;
52104;SDS011;38103;42.776;23.112;2023-05-02T03:37:03;21.45;;;13.90;;
52104;SDS011;38103;42.776;23.112;2023-05-02T03:39:29;20.65;;;14.15;;
52104;SDS011;38103;42.776;23.112;2023-05-02T03:41:54;19.98;;;13.00;;
52104;SDS011;38103;42.776;23.112;2023-05-02T03:44:20;20.42;;;13.20;;
52104;SDS011;38103;42.776;23.112;2023-05-02T03:46:45;29.33;;;14.27;;
52104;SDS011;38103;42.776;23.112;2023-05-02T03:49:11;19.17;;;13.18;;
52104;SDS011;38103;42.776;23.112;2023-05-02T03:51:37;20.88;;;13.75;;
52104;SDS011;38103;42.776;23.112;2023-05-02T03:54:02;23.35;;;12.40;;
52104;SDS011;38103;42.776;23.112;2023-05-02T03:56:28;18.27;;;11.57;;
52104;SDS011;38103;42.776;23.112;2023-05-02T03:58:53;17.60;;;11.68;;
52104;SDS011;38103;42.776;23.112;2023-05-02T04:01:19;17.17;;;10.45;;
52104;SDS011;38103;42.776;23.112;2023-05-02T04:03:44;15.93;;;10.38;;
52104;SDS011;38103;42.776;23.112;2023-05-02T04:06:10;16.35;;;9.30;;
52104;SDS011;38103;42.776;23.112;2023-05-02T04:08:36;17.38;;;10.13;;
52104;SDS011;38103;42.776;23.112;2023-05-02T04:11:02;15.98;;;9.40;;
52104;SDS011;38103;42.776;23.112;2023-05-02T04:13:28;15.20;;;8.52;;
52104;SDS011;38103;42.776;23.112;2023-05-02T04:15:53;14.57;;;9.10;;
52104;SDS011;38103;42.776;23.112;2023-05-02T04:18:19;16.67;;;8.93;;
52104;SDS011;38103;42.776;23.112;2023-05-02T04:20:44;17.40;;;8.55;;
52104;SDS011;38103;42.776;23.112;2023-05-02T04:23:10;13.98;;;8.60;;
52104;SDS011;38103;42.776;23.112;2023-05-02T04:25:35;15.55;;;8.48;;
52104;SDS011;38103;42.776;23.112;2023-05-02T04:28:01;12.82;;;7.95;;
52104;SDS011;38103;42.776;23.112;2023-05-02T04:30:26;14.60;;;8.52;;
52104;SDS011;38103;42.776;23.112;2023-05-02T04:32:51;14.23;;;8.25;;
52104;SDS011;38103;42.776;23.112;2023-05-02T04:35:17;14.43;;;8.35;;
52104;SDS011;38103;42.776;23.112;2023-05-02T04:37:43;17.20;;;8.07;;
52104;SDS011;38103;42.776;23.112;2023-05-02T04:40:08;14.60;;;8.70;;
52104;SDS011;38103;42.776;23.112;2023-05-02T04:42:34;13.82;;;8.10;;
52104;SDS011;38103;42.776;23.112;2023-05-02T04:44:59;13.73;;;8.07;;
52104;SDS011;38103;42.776;23.112;2023-05-02T04:47:25;14.82;;;8.05;;
52104;SDS011;38103;42.776;23.112;2023-05-02T04:49:50;14.48;;;8.43;;
52104;SDS011;38103;42.776;23.112;2023-05-02T04:52:16;14.70;;;8.15;;
52104;SDS011;38103;42.776;23.112;2023-05-02T04:54:42;14.45;;;7.93;;
52104;SDS011;38103;42.776;23.112;2023-05-02T04:57:07;13.38;;;8.40;;
52104;SDS011;38103;42.776;23.112;2023-05-02T04:59:34;15.02;;;8.88;;
52104;SDS011;38103;42.776;23.112;2023-05-02T05:01:59;19.05;;;9.35;;
52104;SDS011;38103;42.776;23.112;2023-05-02T05:04:25;15.27;;;8.73;;
52104;SDS011;38103;42.776;23.112;2023-05-02T05:06:50;16.23;;;8.82;;
52104;SDS011;38103;42.776;23.112;2023-05-02T05:09:16;19.00;;;8.52;;
52104;SDS011;38103;42.776;23.112;2023-05-02T05:11:41;14.50;;;8.18;;
52104;SDS011;38103;42.776;23.112;2023-05-02T05:14:07;16.10;;;8.35;;
52104;SDS011;38103;42.776;23.112;2023-05-02T05:16:33;16.20;;;8.80;;
52104;SDS011;38103;42.776;23.112;2023-05-02T05:18:58;13.48;;;8.48;;
52104;SDS011;38103;42.776;23.112;2023-05-02T05:21:24;16.33;;;8.52;;
52104;SDS011;38103;42.776;23.112;2023-05-02T05:23:49;19.73;;;8.43;;
52104;SDS011;38103;42.776;23.112;2023-05-02T05:26:15;13.98;;;8.65;;
52104;SDS011;38103;42.776;23.112;2023-05-02T05:28:41;16.35;;;9.05;;
52104;SDS011;38103;42.776;23.112;2023-05-02T05:31:07;14.68;;;9.02;;
52104;SDS011;38103;42.776;23.112;2023-05-02T05:33:34;19.30;;;8.75;;
52104;SDS011;38103;42.776;23.112;2023-05-02T05:36:04;17.50;;;8.32;;
52104;SDS011;38103;42.776;23.112;2023-05-02T05:38:36;15.15;;;8.70;;
52104;SDS011;38103;42.776;23.112;2023-05-02T05:41:02;14.80;;;8.27;;
52104;SDS011;38103;42.776;23.112;2023-05-02T05:43:32;15.57;;;8.07;;
52104;SDS011;38103;42.776;23.112;2023-05-02T05:45:58;16.40;;;7.68;;
52104;SDS011;38103;42.776;23.112;2023-05-02T05:48:23;15.90;;;8.57;;
52104;SDS011;38103;42.776;23.112;2023-05-02T05:50:49;19.77;;;8.70;;
52104;SDS011;38103;42.776;23.112;2023-05-02T05:53:16;15.07;;;8.60;;
52104;SDS011;38103;42.776;23.112;2023-05-02T05:55:41;15.70;;;8.45;;
52104;SDS011;38103;42.776;23.112;2023-05-02T05:58:07;21.02;;;8.15;;
52104;SDS011;38103;42.776;23.112;2023-05-02T06:00:35;15.07;;;8.52;;
52104;SDS011;38103;42.776;23.112;2023-05-02T06:03:01;14.60;;;8.35;;
52104;SDS011;38103;42.776;23.112;2023-05-02T06:05:27;14.50;;;8.10;;
52104;SDS011;38103;42.776;23.112;2023-05-02T06:07:54;16.40;;;7.20;;
52104;SDS011;38103;42.776;23.112;2023-05-02T06:10:19;16.08;;;7.00;;
52104;SDS011;38103;42.776;23.112;2023-05-02T06:12:45;12.43;;;5.72;;
52104;SDS011;38103;42.776;23.112;2023-05-02T06:15:10;11.60;;;5.50;;
52104;SDS011;38103;42.776;23.112;2023-05-02T06:17:36;14.63;;;6.20;;
52104;SDS011;38103;42.776;23.112;2023-05-02T06:20:01;12.00;;;5.70;;
52104;SDS011;38103;42.776;23.112;2023-05-02T06:22:27;12.20;;;5.90;;
52104;SDS011;38103;42.776;23.112;2023-05-02T06:24:52;15.93;;;5.88;;
52104;SDS011;38103;42.776;23.112;2023-05-02T06:27:17;11.18;;;5.80;;
52104;SDS011;38103;42.776;23.112;2023-05-02T06:29:43;13.70;;;5.78;;
52104;SDS011;38103;42.776;23.112;2023-05-02T06:32:08;14.13;;;6.25;;
52104;SDS011;38103;42.776;23.112;2023-05-02T06:34:34;13.20;;;5.43;;
52104;SDS011;38103;42.776;23.112;2023-05-02T06:36:59;12.02;;;5.40;;
52104;SDS011;38103;42.776;23.112;2023-05-02T06:39:25;13.65;;;5.70;;
52104;SDS011;38103;42.776;23.112;2023-05-02T06:41:50;14.43;;;5.82;;
52104;SDS011;38103;42.776;23.112;2023-05-02T06:44:20;12.57;;;5.78;;
52104;SDS011;38103;42.776;23.112;2023-05-02T06:46:45;13.80;;;5.78;;
52104;SDS011;38103;42.776;23.112;2023-05-02T06:49:10;11.13;;;5.53;;
52104;SDS011;38103;42.776;23.112;2023-05-02T06:51:36;11.65;;;5.60;;
52104;SDS011;38103;42.776;23.112;2023-05-02T06:54:01;11.88;;;5.20;;
52104;SDS011;38103;42.776;23.112;2023-05-02T06:56:27;11.70;;;5.60;;
52104;SDS011;38103;42.776;23.112;2023-05-02T06:58:52;12.88;;;5.72;;
52104;SDS011;38103;42.776;23.112;2023-05-02T07:01:18;12.15;;;5.82;;
52104;SDS011;38103;42.776;23.112;2023-05-02T07:03:44;12.18;;;5.30;;
52104;SDS011;38103;42.776;23.112;2023-05-02T07:06:10;11.75;;;5.28;;
52104;SDS011;38103;42.776;23.112;2023-05-02T07:08:35;18.10;;;5.80;;
52104;SDS011;38103;42.776;23.112;2023-05-02T07:11:01;13.32;;;5.68;;
52104;SDS011;38103;42.776;23.112;2023-05-02T07:13:27;13.75;;;5.63;;
52104;SDS011;38103;42.776;23.112;2023-05-02T07:15:52;12.75;;;5.85;;
52104;SDS011;38103;42.776;23.112;2023-05-02T07:18:18;11.63;;;5.50;;
52104;SDS011;38103;42.776;23.112;2023-05-02T07:20:43;13.57;;;5.40;;
52104;SDS011;38103;42.776;23.112;2023-05-02T07:23:09;15.07;;;5.50;;
52104;SDS011;38103;42.776;23.112;2023-05-02T07:25:34;14.57;;;5.35;;
52104;SDS011;38103;42.776;23.112;2023-05-02T07:28:00;12.23;;;5.10;;
52104;SDS011;38103;42.776;23.112;2023-05-02T07:30:26;11.85;;;5.30;;
52104;SDS011;38103;42.776;23.112;2023-05-02T07:32:51;16.17;;;4.75;;
52104;SDS011;38103;42.776;23.112;2023-05-02T07:35:16;11.75;;;5.35;;
52104;SDS011;38103;42.776;23.112;2023-05-02T07:37:42;11.18;;;5.18;;
52104;SDS011;38103;42.776;23.112;2023-05-02T07:40:07;11.77;;;5.00;;
52104;SDS011;38103;42.776;23.112;2023-05-02T07:42:33;11.40;;;5.32;;
52104;SDS011;38103;42.776;23.112;2023-05-02T07:45:00;11.10;;;4.85;;
52104;SDS011;38103;42.776;23.112;2023-05-02T07:47:25;11.25;;;5.20;;
52104;SDS011;38103;42.776;23.112;2023-05-02T07:49:52;12.68;;;4.72;;
52104;SDS011;38103;42.776;23.112;2023-05-02T07:52:18;11.38;;;5.28;;
52104;SDS011;38103;42.776;23.112;2023-05-02T07:54:44;12.40;;;4.80;;
52104;SDS011;38103;42.776;23.112;2023-05-02T07:57:10;10.15;;;4.60;;
52104;SDS011;38103;42.776;23.112;2023-05-02T07:59:37;12.95;;;5.05;;
52104;SDS011;38103;42.776;23.112;2023-05-02T08:02:02;10.48;;;4.95;;
52104;SDS011;38103;42.776;23.112;2023-05-02T08:04:28;10.45;;;4.60;;
52104;SDS011;38103;42.776;23.112;2023-05-02T08:06:53;12.43;;;4.65;;
52104;SDS011;38103;42.776;23.112;2023-05-02T08:09:19;11.70;;;4.88;;
52104;SDS011;38103;42.776;23.112;2023-05-02T08:11:44;12.43;;;5.18;;
52104;SDS011;38103;42.776;23.112;2023-05-02T08:14:10;9.75;;;4.28;;
52104;SDS011;38103;42.776;23.112;2023-05-02T08:16:36;11.95;;;4.45;;
52104;SDS011;38103;42.776;23.112;2023-05-02T08:19:01;11.48;;;4.57;;
52104;SDS011;38103;42.776;23.112;2023-05-02T08:21:26;11.98;;;4.75;;
52104;SDS011;38103;42.776;23.112;2023-05-02T08:23:52;10.43;;;4.63;;
52104;SDS011;38103;42.776;23.112;2023-05-02T08:26:24;14.60;;;4.70;;
52104;SDS011;38103;42.776;23.112;2023-05-02T08:28:51;12.30;;;4.50;;
52104;SDS011;38103;42.776;23.112;2023-05-02T08:31:16;11.50;;;4.50;;
52104;SDS011;38103;42.776;23.112;2023-05-02T08:33:43;13.35;;;4.40;;
52104;SDS011;38103;42.776;23.112;2023-05-02T08:36:09;9.75;;;4.25;;
52104;SDS011;38103;42.776;23.112;2023-05-02T08:38:39;11.00;;;4.57;;
52104;SDS011;38103;42.776;23.112;2023-05-02T08:41:09;11.88;;;4.47;;
52104;SDS011;38103;42.776;23.112;2023-05-02T08:43:44;10.85;;;4.82;;
52104;SDS011;38103;42.776;23.112;2023-05-02T08:46:10;9.75;;;4.40;;
52104;SDS011;38103;42.776;23.112;2023-05-02T08:48:38;14.75;;;4.70;;
52104;SDS011;38103;42.776;23.112;2023-05-02T08:51:09;12.13;;;4.68;;
52104;SDS011;38103;42.776;23.112;2023-05-02T08:53:39;10.05;;;4.50;;
52104;SDS011;38103;42.776;23.112;2023-05-02T08:56:06;10.23;;;4.50;;
52104;SDS011;38103;42.776;23.112;2023-05-02T08:58:32;11.98;;;4.43;;
52104;SDS011;38103;42.776;23.112;2023-05-02T09:00:59;15.95;;;4.90;;
52104;SDS011;38103;42.776;23.112;2023-05-02T09:03:30;13.45;;;5.00;;
52104;SDS011;38103;42.776;23.112;2023-05-02T09:08:31;10.70;;;4.60;;
52104;SDS011;38103;42.776;23.112;2023-05-02T09:10:57;14.30;;;4.80;;
52104;SDS011;38103;42.776;23.112;2023-05-02T09:13:30;12.15;;;4.43;;
52104;SDS011;38103;42.776;23.112;2023-05-02T09:16:01;10.48;;;4.40;;
52104;SDS011;38103;42.776;23.112;2023-05-02T09:21:07;10.38;;;4.47;;
52104;SDS011;38103;42.776;23.112;2023-05-02T09:23:35;11.15;;;4.75;;
52104;SDS011;38103;42.776;23.112;2023-05-02T09:26:18;12.68;;;4.40;;
52104;SDS011;38103;42.776;23.112;2023-05-02T09:28:44;11.13;;;4.22;;
52104;SDS011;38103;42.776;23.112;2023-05-02T09:31:15;10.27;;;4.30;;
52104;SDS011;38103;42.776;23.112;2023-05-02T09:33:45;11.30;;;4.40;;
52104;SDS011;38103;42.776;23.112;2023-05-02T09:36:12;15.75;;;4.45;;
52104;SDS011;38103;42.776;23.112;2023-05-02T09:38:39;10.85;;;5.10;;
52104;SDS011;38103;42.776;23.112;2023-05-02T09:41:05;13.70;;;4.88;;
52104;SDS011;38103;42.776;23.112;2023-05-02T09:43:31;12.18;;;4.55;;
52104;SDS011;38103;42.776;23.112;2023-05-02T09:46:04;15.20;;;4.80;;
52104;SDS011;38103;42.776;23.112;2023-05-02T09:48:31;11.63;;;4.80;;
52104;SDS011;38103;42.776;23.112;2023-05-02T09:50:57;10.82;;;4.43;;
52104;SDS011;38103;42.776;23.112;2023-05-02T09:53:24;12.63;;;4.25;;
52104;SDS011;38103;42.776;23.112;2023-05-02T09:56:01;10.45;;;3.92;;
52104;SDS011;38103;42.776;23.112;2023-05-02T09:58:29;12.98;;;4.50;;
52104;SDS011;38103;42.776;23.112;2023-05-02T10:00:55;9.88;;;4.40;;
52104;SDS011;38103;42.776;23.112;2023-05-02T10:03:22;12.70;;;4.60;;
52104;SDS011;38103;42.776;23.112;2023-05-02T10:05:50;15.07;;;4.25;;
52104;SDS011;38103;42.776;23.112;2023-05-02T10:08:18;19.33;;;4.43;;
52104;SDS011;38103;42.776;23.112;2023-05-02T10:10:45;11.93;;;5.20;;
52104;SDS011;38103;42.776;23.112;2023-05-02T10:13:18;13.40;;;4.65;;
52104;SDS011;38103;42.776;23.112;2023-05-02T10:15:47;10.63;;;4.25;;
52104;SDS011;38103;42.776;23.112;2023-05-02T10:18:16;11.68;;;4.93;;
52104;SDS011;38103;42.776;23.112;2023-05-02T10:20:59;13.15;;;4.13;;
52104;SDS011;38103;42.776;23.112;2023-05-02T10:23:29;13.88;;;3.85;;
52104;SDS011;38103;42.776;23.112;2023-05-02T10:25:56;14.75;;;4.53;;
52104;SDS011;38103;42.776;23.112;2023-05-02T10:28:22;13.98;;;4.50;;
52104;SDS011;38103;42.776;23.112;2023-05-02T10:30:49;12.95;;;4.57;;
52104;SDS011;38103;42.776;23.112;2023-05-02T10:33:15;10.40;;;4.70;;
52104;SDS011;38103;42.776;23.112;2023-05-02T10:35:43;11.40;;;4.68;;
52104;SDS011;38103;42.776;23.112;2023-05-02T10:38:11;10.60;;;4.35;;
52104;SDS011;38103;42.776;23.112;2023-05-02T10:40:39;10.68;;;4.13;;
52104;SDS011;38103;42.776;23.112;2023-05-02T10:43:06;12.85;;;4.80;;
52104;SDS011;38103;42.776;23.112;2023-05-02T10:45:33;12.85;;;4.60;;
52104;SDS011;38103;42.776;23.112;2023-05-02T10:50:44;12.20;;;4.03;;
52104;SDS011;38103;42.776;23.112;2023-05-02T10:53:25;12.48;;;4.00;;
52104;SDS011;38103;42.776;23.112;2023-05-02T10:58:45;9.80;;;4.28;;
52104;SDS011;38103;42.776;23.112;2023-05-02T11:06:29;10.50;;;4.03;;
52104;SDS011;38103;42.776;23.112;2023-05-02T11:11:44;9.90;;;4.25;;
52104;SDS011;38103;42.776;23.112;2023-05-02T11:14:10;12.32;;;4.45;;
52104;SDS011;38103;42.776;23.112;2023-05-02T11:19:22;11.30;;;4.07;;
52104;SDS011;38103;42.776;23.112;2023-05-02T11:21:47;11.00;;;4.10;;
52104;SDS011;38103;42.776;23.112;2023-05-02T11:24:46;10.52;;;3.67;;
52104;SDS011;38103;42.776;23.112;2023-05-02T11:30:02;8.70;;;3.60;;
52104;SDS011;38103;42.776;23.112;2023-05-02T11:37:54;11.38;;;3.55;;
52104;SDS011;38103;42.776;23.112;2023-05-02T11:40:30;10.30;;;3.65;;
52104;SDS011;38103;42.776;23.112;2023-05-02T11:42:56;9.98;;;3.60;;
52104;SDS011;38103;42.776;23.112;2023-05-02T11:45:32;12.20;;;4.03;;
52104;SDS011;38103;42.776;23.112;2023-05-02T11:48:04;11.27;;;3.50;;
52104;SDS011;38103;42.776;23.112;2023-05-02T11:50:31;10.13;;;3.38;;
52104;SDS011;38103;42.776;23.112;2023-05-02T11:52:57;8.98;;;3.65;;
52104;SDS011;38103;42.776;23.112;2023-05-02T11:55:23;9.27;;;3.30;;
52104;SDS011;38103;42.776;23.112;2023-05-02T11:57:48;11.07;;;3.75;;
52104;SDS011;38103;42.776;23.112;2023-05-02T12:00:14;12.32;;;3.63;;
52104;SDS011;38103;42.776;23.112;2023-05-02T12:02:40;9.90;;;3.30;;
52104;SDS011;38103;42.776;23.112;2023-05-02T12:05:07;11.35;;;3.33;;
52104;SDS011;38103;42.776;23.112;2023-05-02T12:10:00;14.15;;;3.83;;
52104;SDS011;38103;42.776;23.112;2023-05-02T12:12:25;11.90;;;3.30;;
52104;SDS011;38103;42.776;23.112;2023-05-02T12:14:51;13.20;;;3.40;;
52104;SDS011;38103;42.776;23.112;2023-05-02T12:17:16;10.73;;;3.50;;
52104;SDS011;38103;42.776;23.112;2023-05-02T12:19:42;9.48;;;3.30;;
52104;SDS011;38103;42.776;23.112;2023-05-02T12:22:08;12.02;;;3.50;;
52104;SDS011;38103;42.776;23.112;2023-05-02T12:24:34;11.57;;;3.38;;
52104;SDS011;38103;42.776;23.112;2023-05-02T12:27:10;10.35;;;3.38;;
52104;SDS011;38103;42.776;23.112;2023-05-02T12:32:05;8.60;;;3.10;;
52104;SDS011;38103;42.776;23.112;2023-05-02T12:34:31;12.93;;;3.08;;
52104;SDS011;38103;42.776;23.112;2023-05-02T12:37:00;8.75;;;3.15;;
52104;SDS011;38103;42.776;23.112;2023-05-02T12:39:33;31.00;;;5.07;;
52104;SDS011;38103;42.776;23.112;2023-05-02T12:41:59;19.70;;;3.88;;
52104;SDS011;38103;42.776;23.112;2023-05-02T12:44:34;13.98;;;3.35;;
52104;SDS011;38103;42.776;23.112;2023-05-02T12:47:01;11.18;;;3.20;;
52104;SDS011;38103;42.776;23.112;2023-05-02T12:49:26;11.70;;;3.20;;
52104;SDS011;38103;42.776;23.112;2023-05-02T12:51:52;9.95;;;3.08;;
52104;SDS011;38103;42.776;23.112;2023-05-02T12:54:21;11.45;;;3.15;;
52104;SDS011;38103;42.776;23.112;2023-05-02T12:56:46;11.93;;;3.33;;
52104;SDS011;38103;42.776;23.112;2023-05-02T12:59:28;16.60;;;3.30;;
52104;SDS011;38103;42.776;23.112;2023-05-02T13:01:55;17.63;;;4.18;;
52104;SDS011;38103;42.776;23.112;2023-05-02T13:04:21;11.82;;;3.22;;
52104;SDS011;38103;42.776;23.112;2023-05-02T13:07:05;15.65;;;3.00;;
52104;SDS011;38103;42.776;23.112;2023-05-02T13:09:30;8.30;;;3.20;;
52104;SDS011;38103;42.776;23.112;2023-05-02T13:11:56;8.77;;;3.03;;
52104;SDS011;38103;42.776;23.112;2023-05-02T13:14:23;9.52;;;2.83;;
52104;SDS011;38103;42.776;23.112;2023-05-02T13:16:48;10.88;;;3.28;;
52104;SDS011;38103;42.776;23.112;2023-05-02T13:19:17;10.73;;;3.30;;
52104;SDS011;38103;42.776;23.112;2023-05-02T13:21:42;20.42;;;3.70;;
52104;SDS011;38103;42.776;23.112;2023-05-02T13:24:08;12.55;;;3.15;;
52104;SDS011;38103;42.776;23.112;2023-05-02T13:26:33;14.75;;;3.22;;
52104;SDS011;38103;42.776;23.112;2023-05-02T13:28:58;15.38;;;3.33;;
52104;SDS011;38103;42.776;23.112;2023-05-02T13:31:24;12.32;;;4.30;;
52104;SDS011;38103;42.776;23.112;2023-05-02T13:33:49;14.85;;;3.42;;
52104;SDS011;38103;42.776;23.112;2023-05-02T13:36:14;10.20;;;3.30;;
52104;SDS011;38103;42.776;23.112;2023-05-02T13:38:40;10.15;;;2.80;;
52104;SDS011;38103;42.776;23.112;2023-05-02T13:41:05;10.88;;;3.28;;
52104;SDS011;38103;42.776;23.112;2023-05-02T13:43:31;9.45;;;2.75;;
52104;SDS011;38103;42.776;23.112;2023-05-02T13:45:56;8.75;;;3.13;;
52104;SDS011;38103;42.776;23.112;2023-05-02T13:48:21;9.02;;;2.90;;
52104;SDS011;38103;42.776;23.112;2023-05-02T13:50:47;13.27;;;3.17;;
52104;SDS011;38103;42.776;23.112;2023-05-02T13:53:12;9.70;;;3.10;;
52104;SDS011;38103;42.776;23.112;2023-05-02T13:55:38;35.45;;;4.40;;
52104;SDS011;38103;42.776;23.112;2023-05-02T13:58:03;9.85;;;2.92;;
52104;SDS011;38103;42.776;23.112;2023-05-02T14:00:28;8.57;;;2.90;;
52104;SDS011;38103;42.776;23.112;2023-05-02T14:02:54;9.55;;;2.95;;
52104;SDS011;38103;42.776;23.112;2023-05-02T14:05:19;9.10;;;2.67;;
52104;SDS011;38103;42.776;23.112;2023-05-02T14:07:45;10.30;;;2.92;;
52104;SDS011;38103;42.776;23.112;2023-05-02T14:10:10;11.40;;;3.00;;
52104;SDS011;38103;42.776;23.112;2023-05-02T14:12:36;20.58;;;3.60;;
52104;SDS011;38103;42.776;23.112;2023-05-02T14:15:01;9.20;;;3.10;;
52104;SDS011;38103;42.776;23.112;2023-05-02T14:17:27;8.73;;;2.85;;
52104;SDS011;38103;42.776;23.112;2023-05-02T14:19:52;12.57;;;3.13;;
52104;SDS011;38103;42.776;23.112;2023-05-02T14:22:17;8.80;;;3.33;;
52104;SDS011;38103;42.776;23.112;2023-05-02T14:24:43;12.70;;;3.08;;
52104;SDS011;38103;42.776;23.112;2023-05-02T14:27:08;10.00;;;3.00;;
52104;SDS011;38103;42.776;23.112;2023-05-02T14:29:42;10.55;;;2.70;;
52104;SDS011;38103;42.776;23.112;2023-05-02T14:32:08;9.32;;;2.95;;
52104;SDS011;38103;42.776;23.112;2023-05-02T14:34:33;11.88;;;3.20;;
52104;SDS011;38103;42.776;23.112;2023-05-02T14:36:59;8.30;;;2.70;;
52104;SDS011;38103;42.776;23.112;2023-05-02T14:39:24;13.77;;;2.90;;
52104;SDS011;38103;42.776;23.112;2023-05-02T14:41:51;10.23;;;2.90;;
52104;SDS011;38103;42.776;23.112;2023-05-02T14:44:16;9.15;;;2.50;;
52104;SDS011;38103;42.776;23.112;2023-05-02T14:46:42;8.00;;;2.75;;
52104;SDS011;38103;42.776;23.112;2023-05-02T14:49:07;8.38;;;2.67;;
52104;SDS011;38103;42.776;23.112;2023-05-02T14:51:33;7.75;;;2.67;;
52104;SDS011;38103;42.776;23.112;2023-05-02T14:54:00;7.88;;;2.72;;
52104;SDS011;38103;42.776;23.112;2023-05-02T14:56:26;12.32;;;2.45;;
52104;SDS011;38103;42.776;23.112;2023-05-02T14:58:52;10.10;;;2.75;;
52104;SDS011;38103;42.776;23.112;2023-05-02T15:01:17;11.57;;;2.80;;
52104;SDS011;38103;42.776;23.112;2023-05-02T15:03:44;9.65;;;2.65;;
52104;SDS011;38103;42.776;23.112;2023-05-02T15:06:13;11.02;;;2.75;;
52104;SDS011;38103;42.776;23.112;2023-05-02T15:08:40;7.32;;;2.53;;
52104;SDS011;38103;42.776;23.112;2023-05-02T15:11:08;9.20;;;2.80;;
52104;SDS011;38103;42.776;23.112;2023-05-02T15:13:34;9.55;;;2.50;;